sensor_id;sensor_type;location;lat;lon;timestamp;temperature;humidity
65854;DHT22;52627;48.838;2.402;2022-10-16T00:01:42;17.06;78.83
65854;DHT22;52627;48.838;2.402;2022-10-16T00:04:10;17.04;78.87
65854;DHT22;52627;48.838;2.402;2022-10-16T00:06:37;17.05;78.90
65854;DHT22;52627;48.838;2.402;2022-10-16T00:09:06;17.04;78.88
65854;DHT22;52627;48.838;2.402;2022-10-16T00:11:34;17.05;78.94
65854;DHT22;52627;48.838;2.402;2022-10-16T00:14:07;17.04;79.00
65854;DHT22;52627;48.838;2.402;2022-10-16T00:16:38;17.05;79.01
65854;DHT22;52627;48.838;2.402;2022-10-16T00:19:06;17.06;79.09
65854;DHT22;52627;48.838;2.402;2022-10-16T00:21:34;17.05;79.15
65854;DHT22;52627;48.838;2.402;2022-10-16T00:24:06;17.05;79.26
65854;DHT22;52627;48.838;2.402;2022-10-16T00:26:36;17.05;79.30
65854;DHT22;52627;48.838;2.402;2022-10-16T00:29:05;17.03;79.30
65854;DHT22;52627;48.838;2.402;2022-10-16T00:31:33;17.04;79.37
65854;DHT22;52627;48.838;2.402;2022-10-16T00:34:02;17.03;79.50
65854;DHT22;52627;48.838;2.402;2022-10-16T00:36:29;17.02;79.54
65854;DHT22;52627;48.838;2.402;2022-10-16T00:38:57;17.02;79.62
65854;DHT22;52627;48.838;2.402;2022-10-16T00:41:32;17.01;79.70
65854;DHT22;52627;48.838;2.402;2022-10-16T00:44:02;17.01;79.70
65854;DHT22;52627;48.838;2.402;2022-10-16T00:47:09;17.01;79.79
65854;DHT22;52627;48.838;2.402;2022-10-16T00:49:39;17.01;79.80
65854;DHT22;52627;48.838;2.402;2022-10-16T00:52:07;17.01;79.88
65854;DHT22;52627;48.838;2.402;2022-10-16T00:54:34;17.01;79.90
65854;DHT22;52627;48.838;2.402;2022-10-16T00:57:04;17.02;79.90
65854;DHT22;52627;48.838;2.402;2022-10-16T00:59:34;17.02;79.97
65854;DHT22;52627;48.838;2.402;2022-10-16T01:02:05;17.00;80.00
65854;DHT22;52627;48.838;2.402;2022-10-16T01:04:40;16.98;80.00
65854;DHT22;52627;48.838;2.402;2022-10-16T01:07:12;16.96;80.00
65854;DHT22;52627;48.838;2.402;2022-10-16T01:13:00;16.91;80.09
65854;DHT22;52627;48.838;2.402;2022-10-16T01:18:40;16.88;80.09
65854;DHT22;52627;48.838;2.402;2022-10-16T01:21:16;16.86;80.07
65854;DHT22;52627;48.838;2.402;2022-10-16T01:27:01;16.82;80.11
65854;DHT22;52627;48.838;2.402;2022-10-16T01:29:39;16.82;80.09
65854;DHT22;52627;48.838;2.402;2022-10-16T01:32:25;16.81;80.06
65854;DHT22;52627;48.838;2.402;2022-10-16T01:35:02;16.80;80.03
65854;DHT22;52627;48.838;2.402;2022-10-16T01:37:50;16.81;80.02
65854;DHT22;52627;48.838;2.402;2022-10-16T01:40:34;16.81;80.06
65854;DHT22;52627;48.838;2.402;2022-10-16T01:43:08;16.82;80.05
65854;DHT22;52627;48.838;2.402;2022-10-16T01:45:40;16.81;80.09
65854;DHT22;52627;48.838;2.402;2022-10-16T01:48:09;16.79;80.10
65854;DHT22;52627;48.838;2.402;2022-10-16T01:50:41;16.79;80.09
65854;DHT22;52627;48.838;2.402;2022-10-16T01:53:12;16.79;80.04
65854;DHT22;52627;48.838;2.402;2022-10-16T01:55:43;16.78;80.05
65854;DHT22;52627;48.838;2.402;2022-10-16T01:58:13;16.77;80.07
65854;DHT22;52627;48.838;2.402;2022-10-16T02:00:42;16.76;80.04
65854;DHT22;52627;48.838;2.402;2022-10-16T02:03:12;16.75;80.09
65854;DHT22;52627;48.838;2.402;2022-10-16T02:05:47;16.74;80.10
65854;DHT22;52627;48.838;2.402;2022-10-16T02:08:20;16.72;80.13
65854;DHT22;52627;48.838;2.402;2022-10-16T02:10:50;16.67;80.15
65854;DHT22;52627;48.838;2.402;2022-10-16T02:13:19;16.66;80.12
65854;DHT22;52627;48.838;2.402;2022-10-16T02:15:53;16.66;80.10
65854;DHT22;52627;48.838;2.402;2022-10-16T02:18:21;16.66;80.10
65854;DHT22;52627;48.838;2.402;2022-10-16T02:20:51;16.63;80.11
65854;DHT22;52627;48.838;2.402;2022-10-16T02:23:28;16.61;80.12
65854;DHT22;52627;48.838;2.402;2022-10-16T02:26:07;16.60;80.10
65854;DHT22;52627;48.838;2.402;2022-10-16T02:28:38;16.60;80.10
65854;DHT22;52627;48.838;2.402;2022-10-16T02:31:16;16.59;80.10
65854;DHT22;52627;48.838;2.402;2022-10-16T02:33:50;16.58;80.09
65854;DHT22;52627;48.838;2.402;2022-10-16T02:36:20;16.58;80.08
65854;DHT22;52627;48.838;2.402;2022-10-16T02:38:48;16.58;80.01
65854;DHT22;52627;48.838;2.402;2022-10-16T02:41:15;16.58;80.00
65854;DHT22;52627;48.838;2.402;2022-10-16T02:43:43;16.57;80.00
65854;DHT22;52627;48.838;2.402;2022-10-16T02:46:10;16.58;80.00
65854;DHT22;52627;48.838;2.402;2022-10-16T02:48:37;16.56;79.97
65854;DHT22;52627;48.838;2.402;2022-10-16T02:51:06;16.54;80.00
65854;DHT22;52627;48.838;2.402;2022-10-16T02:53:33;16.51;80.00
65854;DHT22;52627;48.838;2.402;2022-10-16T02:56:00;16.47;80.03
65854;DHT22;52627;48.838;2.402;2022-10-16T02:58:28;16.44;80.02
65854;DHT22;52627;48.838;2.402;2022-10-16T03:00:55;16.42;80.00
65854;DHT22;52627;48.838;2.402;2022-10-16T03:03:23;16.41;80.01
65854;DHT22;52627;48.838;2.402;2022-10-16T03:05:50;16.39;80.00
65854;DHT22;52627;48.838;2.402;2022-10-16T03:08:17;16.39;79.98
65854;DHT22;52627;48.838;2.402;2022-10-16T03:10:50;16.40;79.96
65854;DHT22;52627;48.838;2.402;2022-10-16T03:13:18;16.39;79.93
65854;DHT22;52627;48.838;2.402;2022-10-16T03:15:47;16.39;79.90
65854;DHT22;52627;48.838;2.402;2022-10-16T03:18:14;16.38;79.90
65854;DHT22;52627;48.838;2.402;2022-10-16T03:20:42;16.40;79.88
65854;DHT22;52627;48.838;2.402;2022-10-16T03:23:10;16.39;79.86
65854;DHT22;52627;48.838;2.402;2022-10-16T03:25:38;16.38;79.82
65854;DHT22;52627;48.838;2.402;2022-10-16T03:28:05;16.37;79.80
65854;DHT22;52627;48.838;2.402;2022-10-16T03:30:32;16.38;79.79
65854;DHT22;52627;48.838;2.402;2022-10-16T03:33:00;16.38;79.74
65854;DHT22;52627;48.838;2.402;2022-10-16T03:35:27;16.37;79.70
65854;DHT22;52627;48.838;2.402;2022-10-16T03:37:55;16.37;79.70
65854;DHT22;52627;48.838;2.402;2022-10-16T03:40:23;16.35;79.60
65854;DHT22;52627;48.838;2.402;2022-10-16T03:42:50;16.32;79.59
65854;DHT22;52627;48.838;2.402;2022-10-16T03:45:18;16.29;79.54
65854;DHT22;52627;48.838;2.402;2022-10-16T03:47:45;16.26;79.52
65854;DHT22;52627;48.838;2.402;2022-10-16T03:50:13;16.27;79.54
65854;DHT22;52627;48.838;2.402;2022-10-16T03:52:40;16.26;79.52
65854;DHT22;52627;48.838;2.402;2022-10-16T03:55:08;16.25;79.50
65854;DHT22;52627;48.838;2.402;2022-10-16T03:57:36;16.22;79.50
65854;DHT22;52627;48.838;2.402;2022-10-16T04:00:03;16.20;79.48
65854;DHT22;52627;48.838;2.402;2022-10-16T04:02:32;16.19;79.47
65854;DHT22;52627;48.838;2.402;2022-10-16T04:04:59;16.16;79.41
65854;DHT22;52627;48.838;2.402;2022-10-16T04:07:26;16.15;79.41
65854;DHT22;52627;48.838;2.402;2022-10-16T04:09:54;16.15;79.40
65854;DHT22;52627;48.838;2.402;2022-10-16T04:12:22;16.16;79.40
65854;DHT22;52627;48.838;2.402;2022-10-16T04:14:49;16.16;79.40
65854;DHT22;52627;48.838;2.402;2022-10-16T04:17:17;16.17;79.40
65854;DHT22;52627;48.838;2.402;2022-10-16T04:19:44;16.16;79.40
65854;DHT22;52627;48.838;2.402;2022-10-16T04:22:11;16.17;79.41
65854;DHT22;52627;48.838;2.402;2022-10-16T04:24:39;16.18;79.42
65854;DHT22;52627;48.838;2.402;2022-10-16T04:27:07;16.18;79.41
65854;DHT22;52627;48.838;2.402;2022-10-16T04:29:34;16.20;79.48
65854;DHT22;52627;48.838;2.402;2022-10-16T04:32:01;16.20;79.49
65854;DHT22;52627;48.838;2.402;2022-10-16T04:34:29;16.21;79.50
65854;DHT22;52627;48.838;2.402;2022-10-16T04:36:56;16.22;79.50
65854;DHT22;52627;48.838;2.402;2022-10-16T04:39:24;16.24;79.50
65854;DHT22;52627;48.838;2.402;2022-10-16T04:41:51;16.24;79.50
65854;DHT22;52627;48.838;2.402;2022-10-16T04:44:18;16.25;79.50
65854;DHT22;52627;48.838;2.402;2022-10-16T04:46:46;16.26;79.52
65854;DHT22;52627;48.838;2.402;2022-10-16T04:49:13;16.27;79.53
65854;DHT22;52627;48.838;2.402;2022-10-16T04:51:40;16.28;79.58
65854;DHT22;52627;48.838;2.402;2022-10-16T04:54:08;16.28;79.60
65854;DHT22;52627;48.838;2.402;2022-10-16T04:56:36;16.28;79.60
65854;DHT22;52627;48.838;2.402;2022-10-16T04:59:10;16.28;79.60
65854;DHT22;52627;48.838;2.402;2022-10-16T05:01:37;16.29;79.59
65854;DHT22;52627;48.838;2.402;2022-10-16T05:04:04;16.29;79.59
65854;DHT22;52627;48.838;2.402;2022-10-16T05:06:32;16.30;79.60
65854;DHT22;52627;48.838;2.402;2022-10-16T05:08:59;16.29;79.60
65854;DHT22;52627;48.838;2.402;2022-10-16T05:11:27;16.29;79.61
65854;DHT22;52627;48.838;2.402;2022-10-16T05:13:54;16.28;79.61
65854;DHT22;52627;48.838;2.402;2022-10-16T05:16:22;16.26;79.65
65854;DHT22;52627;48.838;2.402;2022-10-16T05:18:50;16.25;79.64
65854;DHT22;52627;48.838;2.402;2022-10-16T05:21:30;16.26;79.63
65854;DHT22;52627;48.838;2.402;2022-10-16T05:23:57;16.27;79.65
65854;DHT22;52627;48.838;2.402;2022-10-16T05:26:25;16.26;79.69
65854;DHT22;52627;48.838;2.402;2022-10-16T05:28:52;16.26;79.70
65854;DHT22;52627;48.838;2.402;2022-10-16T05:31:19;16.27;79.70
65854;DHT22;52627;48.838;2.402;2022-10-16T05:33:47;16.28;79.70
65854;DHT22;52627;48.838;2.402;2022-10-16T05:36:20;16.29;79.70
65854;DHT22;52627;48.838;2.402;2022-10-16T05:38:50;16.31;79.73
65854;DHT22;52627;48.838;2.402;2022-10-16T05:41:18;16.32;79.78
65854;DHT22;52627;48.838;2.402;2022-10-16T05:43:48;16.32;79.80
65854;DHT22;52627;48.838;2.402;2022-10-16T05:46:16;16.31;79.86
65854;DHT22;52627;48.838;2.402;2022-10-16T05:48:44;16.29;79.89
65854;DHT22;52627;48.838;2.402;2022-10-16T05:51:12;16.28;79.90
65854;DHT22;52627;48.838;2.402;2022-10-16T05:53:41;16.28;80.00
65854;DHT22;52627;48.838;2.402;2022-10-16T05:56:13;16.26;80.02
65854;DHT22;52627;48.838;2.402;2022-10-16T05:58:41;16.26;80.04
65854;DHT22;52627;48.838;2.402;2022-10-16T06:01:10;16.26;80.10
65854;DHT22;52627;48.838;2.402;2022-10-16T06:03:41;16.25;80.11
65854;DHT22;52627;48.838;2.402;2022-10-16T06:06:09;16.26;80.11
65854;DHT22;52627;48.838;2.402;2022-10-16T06:08:43;16.26;80.15
65854;DHT22;52627;48.838;2.402;2022-10-16T06:11:22;16.26;80.18
65854;DHT22;52627;48.838;2.402;2022-10-16T06:13:56;16.28;80.21
65854;DHT22;52627;48.838;2.402;2022-10-16T06:16:25;16.27;80.21
65854;DHT22;52627;48.838;2.402;2022-10-16T06:18:53;16.27;80.29
65854;DHT22;52627;48.838;2.402;2022-10-16T06:21:27;16.26;80.33
65854;DHT22;52627;48.838;2.402;2022-10-16T06:23:55;16.26;80.40
65854;DHT22;52627;48.838;2.402;2022-10-16T06:26:25;16.26;80.40
65854;DHT22;52627;48.838;2.402;2022-10-16T06:28:55;16.28;80.40
65854;DHT22;52627;48.838;2.402;2022-10-16T06:31:24;16.28;80.43
65854;DHT22;52627;48.838;2.402;2022-10-16T06:33:54;16.29;80.46
65854;DHT22;52627;48.838;2.402;2022-10-16T06:36:23;16.31;80.49
65854;DHT22;52627;48.838;2.402;2022-10-16T06:38:51;16.31;80.50
65854;DHT22;52627;48.838;2.402;2022-10-16T06:41:20;16.31;80.55
65854;DHT22;52627;48.838;2.402;2022-10-16T06:43:49;16.32;80.58
65854;DHT22;52627;48.838;2.402;2022-10-16T06:46:18;16.33;80.60
65854;DHT22;52627;48.838;2.402;2022-10-16T06:48:49;16.35;80.60
65854;DHT22;52627;48.838;2.402;2022-10-16T06:51:17;16.36;80.60
65854;DHT22;52627;48.838;2.402;2022-10-16T06:53:50;16.36;80.68
65854;DHT22;52627;48.838;2.402;2022-10-16T06:56:30;16.36;80.71
65854;DHT22;52627;48.838;2.402;2022-10-16T06:59:00;16.33;80.77
65854;DHT22;52627;48.838;2.402;2022-10-16T07:01:28;16.31;80.86
65854;DHT22;52627;48.838;2.402;2022-10-16T07:03:56;16.28;80.96
65854;DHT22;52627;48.838;2.402;2022-10-16T07:06:24;16.26;81.07
65854;DHT22;52627;48.838;2.402;2022-10-16T07:08:53;16.24;81.12
65854;DHT22;52627;48.838;2.402;2022-10-16T07:11:21;16.24;81.21
65854;DHT22;52627;48.838;2.402;2022-10-16T07:13:50;16.23;81.30
65854;DHT22;52627;48.838;2.402;2022-10-16T07:16:23;16.24;81.35
65854;DHT22;52627;48.838;2.402;2022-10-16T07:18:58;16.28;81.34
65854;DHT22;52627;48.838;2.402;2022-10-16T07:21:28;16.34;81.40
65854;DHT22;52627;48.838;2.402;2022-10-16T07:24:03;16.39;81.40
65854;DHT22;52627;48.838;2.402;2022-10-16T07:26:34;16.46;81.40
65854;DHT22;52627;48.838;2.402;2022-10-16T07:29:03;16.53;81.40
65854;DHT22;52627;48.838;2.402;2022-10-16T07:31:31;16.62;81.42
65854;DHT22;52627;48.838;2.402;2022-10-16T07:33:59;16.72;81.40
65854;DHT22;52627;48.838;2.402;2022-10-16T07:36:27;16.80;81.37
65854;DHT22;52627;48.838;2.402;2022-10-16T07:38:55;16.88;81.35
65854;DHT22;52627;48.838;2.402;2022-10-16T07:41:26;16.94;81.31
65854;DHT22;52627;48.838;2.402;2022-10-16T07:43:54;16.97;81.30
65854;DHT22;52627;48.838;2.402;2022-10-16T07:46:23;17.04;81.30
65854;DHT22;52627;48.838;2.402;2022-10-16T07:48:50;17.12;81.28
65854;DHT22;52627;48.838;2.402;2022-10-16T07:51:19;17.22;81.20
65854;DHT22;52627;48.838;2.402;2022-10-16T07:53:49;17.29;81.11
65854;DHT22;52627;48.838;2.402;2022-10-16T07:56:18;17.31;81.03
65854;DHT22;52627;48.838;2.402;2022-10-16T07:58:46;17.37;80.97
65854;DHT22;52627;48.838;2.402;2022-10-16T08:01:16;17.43;80.88
65854;DHT22;52627;48.838;2.402;2022-10-16T08:03:46;17.50;80.77
65854;DHT22;52627;48.838;2.402;2022-10-16T08:06:16;17.61;80.59
65854;DHT22;52627;48.838;2.402;2022-10-16T08:08:51;17.74;80.33
65854;DHT22;52627;48.838;2.402;2022-10-16T08:11:18;17.83;80.23
65854;DHT22;52627;48.838;2.402;2022-10-16T08:13:45;17.91;80.10
65854;DHT22;52627;48.838;2.402;2022-10-16T08:16:13;18.02;80.01
65854;DHT22;52627;48.838;2.402;2022-10-16T08:18:40;18.17;79.91
65854;DHT22;52627;48.838;2.402;2022-10-16T08:21:12;18.25;79.64
65854;DHT22;52627;48.838;2.402;2022-10-16T08:23:47;18.30;79.58
65854;DHT22;52627;48.838;2.402;2022-10-16T08:26:24;18.40;79.38
65854;DHT22;52627;48.838;2.402;2022-10-16T08:28:53;18.50;79.21
65854;DHT22;52627;48.838;2.402;2022-10-16T08:31:22;18.58;78.98
65854;DHT22;52627;48.838;2.402;2022-10-16T08:33:50;18.76;78.76
65854;DHT22;52627;48.838;2.402;2022-10-16T08:36:19;19.07;78.55
65854;DHT22;52627;48.838;2.402;2022-10-16T08:38:49;19.12;78.17
65854;DHT22;52627;48.838;2.402;2022-10-16T08:41:20;19.12;77.83
65854;DHT22;52627;48.838;2.402;2022-10-16T08:47:45;19.14;77.41
65854;DHT22;52627;48.838;2.402;2022-10-16T08:50:47;19.16;77.26
65854;DHT22;52627;48.838;2.402;2022-10-16T08:53:19;19.16;76.92
65854;DHT22;52627;48.838;2.402;2022-10-16T08:55:53;19.14;76.70
65854;DHT22;52627;48.838;2.402;2022-10-16T08:58:22;19.12;76.51
65854;DHT22;52627;48.838;2.402;2022-10-16T09:00:56;19.09;76.22
65854;DHT22;52627;48.838;2.402;2022-10-16T09:06:17;19.32;76.05
65854;DHT22;52627;48.838;2.402;2022-10-16T09:12:09;19.61;75.15
65854;DHT22;52627;48.838;2.402;2022-10-16T09:17:54;19.98;74.24
65854;DHT22;52627;48.838;2.402;2022-10-16T09:21:01;20.64;73.73
65854;DHT22;52627;48.838;2.402;2022-10-16T09:23:45;21.25;73.17
65854;DHT22;52627;48.838;2.402;2022-10-16T09:26:14;21.62;71.84
65854;DHT22;52627;48.838;2.402;2022-10-16T09:28:43;21.59;71.30
65854;DHT22;52627;48.838;2.402;2022-10-16T09:31:18;21.58;71.39
65854;DHT22;52627;48.838;2.402;2022-10-16T09:33:49;22.01;71.33
65854;DHT22;52627;48.838;2.402;2022-10-16T09:36:21;22.52;70.90
65854;DHT22;52627;48.838;2.402;2022-10-16T09:39:06;22.95;70.77
65854;DHT22;52627;48.838;2.402;2022-10-16T09:41:37;23.25;69.72
65854;DHT22;52627;48.838;2.402;2022-10-16T09:44:40;23.58;69.25
65854;DHT22;52627;48.838;2.402;2022-10-16T09:47:13;24.06;68.79
65854;DHT22;52627;48.838;2.402;2022-10-16T09:49:51;24.35;67.72
65854;DHT22;52627;48.838;2.402;2022-10-16T09:52:22;24.36;67.51
65854;DHT22;52627;48.838;2.402;2022-10-16T09:54:53;24.33;66.92
65854;DHT22;52627;48.838;2.402;2022-10-16T09:57:24;24.24;66.46
65854;DHT22;52627;48.838;2.402;2022-10-16T09:59:53;24.14;66.12
65854;DHT22;52627;48.838;2.402;2022-10-16T10:05:05;23.77;64.87
65854;DHT22;52627;48.838;2.402;2022-10-16T10:07:45;23.60;64.59
65854;DHT22;52627;48.838;2.402;2022-10-16T10:10:20;23.50;64.22
65854;DHT22;52627;48.838;2.402;2022-10-16T10:12:56;23.34;63.40
65854;DHT22;52627;48.838;2.402;2022-10-16T10:15:32;23.29;63.50
65854;DHT22;52627;48.838;2.402;2022-10-16T10:18:01;23.36;63.00
65854;DHT22;52627;48.838;2.402;2022-10-16T10:20:34;23.44;62.93
65854;DHT22;52627;48.838;2.402;2022-10-16T10:23:21;23.74;62.58
65854;DHT22;52627;48.838;2.402;2022-10-16T10:25:54;24.03;61.73
65854;DHT22;52627;48.838;2.402;2022-10-16T10:32:17;24.02;60.70
65854;DHT22;52627;48.838;2.402;2022-10-16T10:35:22;23.80;60.88
65854;DHT22;52627;48.838;2.402;2022-10-16T10:44:42;23.19;60.48
65854;DHT22;52627;48.838;2.402;2022-10-16T10:47:28;23.02;60.26
65854;DHT22;52627;48.838;2.402;2022-10-16T10:50:42;22.80;60.19
65854;DHT22;52627;48.838;2.402;2022-10-16T10:59:48;22.15;60.81
65854;DHT22;52627;48.838;2.402;2022-10-16T11:05:21;21.88;61.20
65854;DHT22;52627;48.838;2.402;2022-10-16T11:08:17;21.66;61.50
65854;DHT22;52627;48.838;2.402;2022-10-16T11:11:40;21.41;61.81
65854;DHT22;52627;48.838;2.402;2022-10-16T11:22:11;21.05;62.93
65854;DHT22;52627;48.838;2.402;2022-10-16T11:25:27;20.91;63.29
65854;DHT22;52627;48.838;2.402;2022-10-16T11:31:07;21.03;63.60
65854;DHT22;52627;48.838;2.402;2022-10-16T11:36:59;21.25;63.70
65854;DHT22;52627;48.838;2.402;2022-10-16T11:39:34;21.30;63.75
65854;DHT22;52627;48.838;2.402;2022-10-16T11:42:10;21.36;63.79
65854;DHT22;52627;48.838;2.402;2022-10-16T11:47:58;21.41;63.80
65854;DHT22;52627;48.838;2.402;2022-10-16T11:50:42;21.52;63.81
65854;DHT22;52627;48.838;2.402;2022-10-16T11:56:07;21.71;63.72
65854;DHT22;52627;48.838;2.402;2022-10-16T12:01:33;21.62;63.56
65854;DHT22;52627;48.838;2.402;2022-10-16T12:04:14;21.53;63.53
65854;DHT22;52627;48.838;2.402;2022-10-16T12:06:59;21.43;63.59
65854;DHT22;52627;48.838;2.402;2022-10-16T12:09:34;21.36;63.68
65854;DHT22;52627;48.838;2.402;2022-10-16T12:12:23;21.29;63.74
65854;DHT22;52627;48.838;2.402;2022-10-16T12:18:23;21.08;64.19
65854;DHT22;52627;48.838;2.402;2022-10-16T12:20:58;20.99;64.42
65854;DHT22;52627;48.838;2.402;2022-10-16T12:23:54;20.93;64.58
65854;DHT22;52627;48.838;2.402;2022-10-16T12:26:24;20.93;64.78
65854;DHT22;52627;48.838;2.402;2022-10-16T12:28:54;20.92;64.93
65854;DHT22;52627;48.838;2.402;2022-10-16T12:31:48;20.95;65.13
65854;DHT22;52627;48.838;2.402;2022-10-16T12:34:41;20.93;65.37
65854;DHT22;52627;48.838;2.402;2022-10-16T12:37:24;20.85;65.71
65854;DHT22;52627;48.838;2.402;2022-10-16T12:39:56;20.80;65.90
65854;DHT22;52627;48.838;2.402;2022-10-16T12:44:55;20.92;66.09
65854;DHT22;52627;48.838;2.402;2022-10-16T12:47:34;21.02;66.21
65854;DHT22;52627;48.838;2.402;2022-10-16T12:50:22;21.11;66.32
65854;DHT22;52627;48.838;2.402;2022-10-16T12:52:51;21.20;66.39
65854;DHT22;52627;48.838;2.402;2022-10-16T12:55:20;21.19;66.48
65854;DHT22;52627;48.838;2.402;2022-10-16T13:00:57;21.20;66.73
65854;DHT22;52627;48.838;2.402;2022-10-16T13:03:48;21.23;66.80
65854;DHT22;52627;48.838;2.402;2022-10-16T13:12:19;21.57;66.77
65854;DHT22;52627;48.838;2.402;2022-10-16T13:27:07;22.00;66.90
65854;DHT22;52627;48.838;2.402;2022-10-16T13:30:23;22.10;66.74
65854;DHT22;52627;48.838;2.402;2022-10-16T13:33:01;22.07;66.68
65854;DHT22;52627;48.838;2.402;2022-10-16T13:35:31;22.06;66.79
65854;DHT22;52627;48.838;2.402;2022-10-16T13:40:48;22.16;66.69
65854;DHT22;52627;48.838;2.402;2022-10-16T13:43:35;22.04;66.71
65854;DHT22;52627;48.838;2.402;2022-10-16T13:46:06;21.95;66.82
65854;DHT22;52627;48.838;2.402;2022-10-16T13:48:56;21.92;66.82
65854;DHT22;52627;48.838;2.402;2022-10-16T13:51:32;21.88;66.89
65854;DHT22;52627;48.838;2.402;2022-10-16T13:54:00;21.84;66.90
65854;DHT22;52627;48.838;2.402;2022-10-16T13:56:28;21.82;66.95
65854;DHT22;52627;48.838;2.402;2022-10-16T13:59:22;21.83;67.02
65854;DHT22;52627;48.838;2.402;2022-10-16T14:01:52;21.74;67.18
65854;DHT22;52627;48.838;2.402;2022-10-16T14:04:22;21.69;67.30
65854;DHT22;52627;48.838;2.402;2022-10-16T14:06:51;21.69;67.42
65854;DHT22;52627;48.838;2.402;2022-10-16T14:09:23;21.67;67.48
65854;DHT22;52627;48.838;2.402;2022-10-16T14:12:00;21.68;67.56
65854;DHT22;52627;48.838;2.402;2022-10-16T14:14:34;21.68;67.62
65854;DHT22;52627;48.838;2.402;2022-10-16T14:17:22;21.69;67.70
65854;DHT22;52627;48.838;2.402;2022-10-16T14:19:55;21.70;67.81
65854;DHT22;52627;48.838;2.402;2022-10-16T14:28:00;21.80;67.94
65854;DHT22;52627;48.838;2.402;2022-10-16T14:30:49;21.85;68.00
65854;DHT22;52627;48.838;2.402;2022-10-16T14:33:24;21.91;68.00
65854;DHT22;52627;48.838;2.402;2022-10-16T14:38:47;21.88;68.06
65854;DHT22;52627;48.838;2.402;2022-10-16T14:41:29;21.87;68.12
65854;DHT22;52627;48.838;2.402;2022-10-16T14:44:02;21.92;68.18
65854;DHT22;52627;48.838;2.402;2022-10-16T14:46:33;21.97;68.19
65854;DHT22;52627;48.838;2.402;2022-10-16T14:49:25;22.01;68.20
65854;DHT22;52627;48.838;2.402;2022-10-16T14:51:51;22.06;68.20
65854;DHT22;52627;48.838;2.402;2022-10-16T14:54:19;22.07;68.21
65854;DHT22;52627;48.838;2.402;2022-10-16T14:56:48;22.05;68.25
65854;DHT22;52627;48.838;2.402;2022-10-16T14:59:24;22.03;68.29
65854;DHT22;52627;48.838;2.402;2022-10-16T15:01:57;22.01;68.31
65854;DHT22;52627;48.838;2.402;2022-10-16T15:04:25;21.96;68.39
65854;DHT22;52627;48.838;2.402;2022-10-16T15:06:52;21.93;68.43
65854;DHT22;52627;48.838;2.402;2022-10-16T15:09:19;21.91;68.50
65854;DHT22;52627;48.838;2.402;2022-10-16T15:11:47;21.89;68.63
65854;DHT22;52627;48.838;2.402;2022-10-16T15:14:14;21.86;68.74
65854;DHT22;52627;48.838;2.402;2022-10-16T15:16:46;21.83;68.83
65854;DHT22;52627;48.838;2.402;2022-10-16T15:19:14;21.84;68.90
65854;DHT22;52627;48.838;2.402;2022-10-16T15:21:41;21.85;69.00
65854;DHT22;52627;48.838;2.402;2022-10-16T15:24:11;21.84;69.10
65854;DHT22;52627;48.838;2.402;2022-10-16T15:26:45;21.82;69.18
65854;DHT22;52627;48.838;2.402;2022-10-16T15:29:16;21.81;69.30
65854;DHT22;52627;48.838;2.402;2022-10-16T15:31:44;21.79;69.44
65854;DHT22;52627;48.838;2.402;2022-10-16T15:34:14;21.77;69.58
65854;DHT22;52627;48.838;2.402;2022-10-16T15:36:41;21.74;69.72
65854;DHT22;52627;48.838;2.402;2022-10-16T15:39:13;21.73;69.79
65854;DHT22;52627;48.838;2.402;2022-10-16T15:41:43;21.73;69.90
65854;DHT22;52627;48.838;2.402;2022-10-16T15:44:17;21.75;69.95
65854;DHT22;52627;48.838;2.402;2022-10-16T15:46:45;21.79;70.06
65854;DHT22;52627;48.838;2.402;2022-10-16T15:49:14;21.80;70.12
65854;DHT22;52627;48.838;2.402;2022-10-16T15:51:41;21.80;70.22
65854;DHT22;52627;48.838;2.402;2022-10-16T15:54:09;21.78;70.27
65854;DHT22;52627;48.838;2.402;2022-10-16T15:56:36;21.79;70.33
65854;DHT22;52627;48.838;2.402;2022-10-16T15:59:04;21.80;70.39
65854;DHT22;52627;48.838;2.402;2022-10-16T16:01:34;21.80;70.44
65854;DHT22;52627;48.838;2.402;2022-10-16T16:04:02;21.83;70.49
65854;DHT22;52627;48.838;2.402;2022-10-16T16:06:37;21.86;70.51
65854;DHT22;52627;48.838;2.402;2022-10-16T16:09:06;21.89;70.56
65854;DHT22;52627;48.838;2.402;2022-10-16T16:11:33;21.92;70.60
65854;DHT22;52627;48.838;2.402;2022-10-16T16:14:05;21.94;70.61
65854;DHT22;52627;48.838;2.402;2022-10-16T16:16:33;21.94;70.65
65854;DHT22;52627;48.838;2.402;2022-10-16T16:19:04;21.92;70.72
65854;DHT22;52627;48.838;2.402;2022-10-16T16:21:38;21.90;70.80
65854;DHT22;52627;48.838;2.402;2022-10-16T16:24:05;21.88;70.86
65854;DHT22;52627;48.838;2.402;2022-10-16T16:26:35;21.84;70.90
65854;DHT22;52627;48.838;2.402;2022-10-16T16:29:06;21.84;70.93
65854;DHT22;52627;48.838;2.402;2022-10-16T16:31:35;21.83;71.00
65854;DHT22;52627;48.838;2.402;2022-10-16T16:34:03;21.80;71.07
65854;DHT22;52627;48.838;2.402;2022-10-16T16:36:30;21.79;71.08
65854;DHT22;52627;48.838;2.402;2022-10-16T16:38:58;21.76;71.20
65854;DHT22;52627;48.838;2.402;2022-10-16T16:41:26;21.72;71.29
65854;DHT22;52627;48.838;2.402;2022-10-16T16:44:04;21.70;71.33
65854;DHT22;52627;48.838;2.402;2022-10-16T16:46:33;21.65;71.50
65854;DHT22;52627;48.838;2.402;2022-10-16T16:49:01;21.60;71.60
65854;DHT22;52627;48.838;2.402;2022-10-16T16:51:29;21.54;71.77
65854;DHT22;52627;48.838;2.402;2022-10-16T16:53:56;21.49;71.85
65854;DHT22;52627;48.838;2.402;2022-10-16T16:56:25;21.46;71.87
65854;DHT22;52627;48.838;2.402;2022-10-16T16:58:54;21.44;71.93
65854;DHT22;52627;48.838;2.402;2022-10-16T17:01:23;21.41;72.14
65854;DHT22;52627;48.838;2.402;2022-10-16T17:03:53;21.38;72.21
65854;DHT22;52627;48.838;2.402;2022-10-16T17:06:25;21.36;72.23
65854;DHT22;52627;48.838;2.402;2022-10-16T17:08:56;21.36;72.30
65854;DHT22;52627;48.838;2.402;2022-10-16T17:11:25;21.35;72.40
65854;DHT22;52627;48.838;2.402;2022-10-16T17:13:54;21.33;72.49
65854;DHT22;52627;48.838;2.402;2022-10-16T17:16:25;21.32;72.61
65854;DHT22;52627;48.838;2.402;2022-10-16T17:19:07;21.29;72.70
65854;DHT22;52627;48.838;2.402;2022-10-16T17:21:41;21.28;72.91
65854;DHT22;52627;48.838;2.402;2022-10-16T17:24:10;21.25;72.90
65854;DHT22;52627;48.838;2.402;2022-10-16T17:26:38;21.24;73.01
65854;DHT22;52627;48.838;2.402;2022-10-16T17:29:09;21.20;73.08
65854;DHT22;52627;48.838;2.402;2022-10-16T17:31:39;21.19;73.10
65854;DHT22;52627;48.838;2.402;2022-10-16T17:34:07;21.16;73.19
65854;DHT22;52627;48.838;2.402;2022-10-16T17:36:37;21.13;73.53
65854;DHT22;52627;48.838;2.402;2022-10-16T17:39:10;21.09;73.56
65854;DHT22;52627;48.838;2.402;2022-10-16T17:41:43;21.06;73.69
65854;DHT22;52627;48.838;2.402;2022-10-16T17:44:12;21.02;73.83
65854;DHT22;52627;48.838;2.402;2022-10-16T17:46:47;20.97;73.90
65854;DHT22;52627;48.838;2.402;2022-10-16T17:49:17;20.95;73.92